Time;durP1;ratioP1;P1;durP2;ratioP2;P2;SDS_P1;SDS_P2;PMS_P1;PMS_P2;Temp;Humidity;BMP_temperature;BMP_pressure;BME280_temperature;BME280_humidity;BME280_pressure;Samples;Min_cycle;Max_cycle;Signal;HPM_P1;HPM_P2
2022/01/15 00:00:20;;;;;;;;;71.25;55.00;;;;;2.71;64.80;101186.84;146604;571;46021;-77
2022/01/15 00:03:15;;;;;;;;;72.75;56.25;;;;;2.75;64.41;101173.53;146602;604;46010;-77
2022/01/15 00:06:07;;;;;;;;;67.00;53.00;;;;;2.81;65.60;101175.75;146609;611;46020;-75
2022/01/15 00:09:00;;;;;;;;;57.25;44.25;;;;;2.77;64.87;101169.47;146602;630;46017;-72
2022/01/15 00:11:52;;;;;;;;;94.67;79.33;;;;;2.68;65.67;101163.53;146604;574;47912;-72
2022/01/15 00:14:45;;;;;;;;;118.33;94.67;;;;;2.60;66.39;101176.37;146615;643;46016;-78
2022/01/15 00:17:49;;;;;;;;;61.50;47.25;;;;;2.53;66.11;101180.06;146613;637;46008;-76
2022/01/15 00:20:42;;;;;;;;;50.50;41.50;;;;;2.46;65.44;101165.81;146602;635;46016;-76
2022/01/15 00:23:34;;;;;;;;;70.00;53.50;;;;;2.44;65.96;101175.00;146603;670;45913;-80
2022/01/15 00:26:26;;;;;;;;;51.25;41.75;;;;;2.42;66.72;101175.63;146602;628;46012;-76
2022/01/15 00:29:19;;;;;;;;;41.00;34.25;;;;;2.46;65.39;101187.91;146606;597;45045;-77
2022/01/15 00:32:12;;;;;;;;;53.00;41.25;;;;;2.53;66.29;101200.53;146603;597;46016;-73
2022/01/15 00:35:04;;;;;;;;;44.50;38.50;;;;;2.59;65.67;101202.75;146603;611;46020;-76
2022/01/15 00:37:56;;;;;;;;;41.00;33.50;;;;;2.62;65.94;101214.16;146599;590;46010;-82
2022/01/15 00:40:48;;;;;;;;;42.00;37.50;;;;;2.66;65.71;101223.03;146603;589;46020;-78
2022/01/15 00:43:41;;;;;;;;;59.25;45.25;;;;;2.70;65.48;101223.44;146605;565;46011;-76
2022/01/15 00:46:33;;;;;;;;;51.25;41.25;;;;;2.73;65.60;101210.91;146607;585;46020;-76
2022/01/15 00:49:25;;;;;;;;;38.75;32.25;;;;;2.81;65.00;101209.03;146602;690;46010;-76
2022/01/15 00:52:17;;;;;;;;;49.25;41.25;;;;;2.92;64.15;101210.88;146601;632;46021;-77
2022/01/15 00:55:11;;;;;;;;;49.00;37.50;;;;;2.99;65.78;101191.81;146602;629;46016;-77
2022/01/15 00:58:04;;;;;;;;;33.50;28.25;;;;;2.97;64.66;101194.28;146603;625;46020;-75
2022/01/15 01:00:56;;;;;;;;;40.00;33.25;;;;;2.94;64.95;101186.31;146598;590;46017;-76
2022/01/15 01:03:48;;;;;;;;;33.50;29.00;;;;;2.92;64.90;101181.81;146607;563;46008;-76
2022/01/15 01:06:40;;;;;;;;;39.50;33.75;;;;;2.89;65.51;101171.28;146606;564;46016;-76
2022/01/15 01:22:54;;;;;;;;;54.25;40.25;;;;;2.67;66.03;101169.37;146606;712;47008;-73
2022/01/15 01:25:48;;;;;;;;;49.50;38.75;;;;;2.54;66.01;101162.25;146607;574;46012;-72
2022/01/15 01:28:45;;;;;;;;;45.50;36.75;;;;;2.50;65.59;101154.19;146608;605;47008;-73
2022/01/15 01:31:51;;;;;;;;;51.75;39.50;;;;;2.52;66.21;101147.53;146605;613;46010;-78
2022/01/15 01:34:44;;;;;;;;;51.75;39.50;;;;;2.58;66.65;101142.06;146609;564;46008;-78
2022/01/15 01:37:41;;;;;;;;;47.00;38.50;;;;;2.58;66.06;101137.84;146601;574;46016;-77
2022/01/15 01:40:39;;;;;;;;;84.33;62.33;;;;;2.60;66.19;101137.97;146610;666;46008;-77
2022/01/15 01:43:53;;;;;;;;;62.75;49.25;;;;;2.64;65.94;101135.81;146607;573;46011;-82
2022/01/15 01:46:51;;;;;;;;;53.75;42.75;;;;;2.69;66.84;101129.47;146608;598;46020;-82
2022/01/15 01:49:44;;;;;;;;;39.75;31.50;;;;;2.68;66.72;101139.53;146608;575;46016;-76
2022/01/15 01:52:36;;;;;;;;;38.50;32.75;;;;;2.61;67.59;101127.88;146609;575;46021;-76
2022/01/15 01:55:30;;;;;;;;;30.75;28.00;;;;;2.62;66.03;101127.12;146605;621;46016;-74
2022/01/15 01:58:22;;;;;;;;;35.25;29.00;;;;;2.64;66.35;101133.25;146605;737;46020;-74
2022/01/15 02:01:15;;;;;;;;;49.25;37.75;;;;;2.65;66.21;101135.09;146607;571;46010;-73
2022/01/15 02:04:08;;;;;;;;;37.00;30.25;;;;;2.66;66.98;101131.75;146605;569;46020;-76
2022/01/15 02:07:00;;;;;;;;;32.00;26.25;;;;;2.62;67.24;101139.03;146600;582;46017;-75
2022/01/15 02:09:51;;;;;;;;;31.25;28.00;;;;;2.57;67.72;101117.22;146605;577;46008;-76
2022/01/15 02:12:45;;;;;;;;;27.00;26.25;;;;;2.55;66.83;101122.19;146602;699;46017;-76
2022/01/15 02:15:37;;;;;;;;;27.75;22.50;;;;;2.51;67.43;101130.38;146604;663;46008;-75
2022/01/15 02:18:30;;;;;;;;;22.50;21.00;;;;;2.51;67.19;101112.47;146602;569;46016;-77
2022/01/15 02:24:32;;;;;;;;;20.50;18.75;;;;;2.64;67.16;101117.91;146601;570;46016;-79
2022/01/15 02:27:24;;;;;;;;;34.25;28.00;;;;;2.72;66.68;101121.16;146605;607;46020;-82
2022/01/15 02:30:18;;;;;;;;;31.25;27.75;;;;;2.82;66.43;101116.06;146597;622;46016;-78
2022/01/15 02:33:10;;;;;;;;;31.00;27.25;;;;;2.99;66.04;101105.66;146607;575;45913;-80
2022/01/15 02:36:03;;;;;;;;;34.00;25.25;;;;;3.18;65.26;101109.81;146603;700;46010;-80
2022/01/15 02:38:56;;;;;;;;;34.00;31.50;;;;;3.35;65.02;101117.28;146601;590;46020;-75
2022/01/15 02:41:48;;;;;;;;;37.00;31.75;;;;;3.51;64.77;101110.91;146601;581;45864;-74
2022/01/15 02:44:43;;;;;;;;;34.75;30.25;;;;;3.61;64.23;101109.22;146601;581;46008;-75
2022/01/15 02:50:48;;;;;;;;;32.50;27.50;;;;;3.82;63.41;101112.72;146602;564;46008;-76
2022/01/15 02:53:41;;;;;;;;;28.00;27.00;;;;;3.91;63.72;101107.47;146602;577;46016;-73
2022/01/15 02:56:42;;;;;;;;;31.50;24.75;;;;;3.98;62.92;101106.31;146601;631;46012;-69
2022/01/15 02:59:35;;;;;;;;;35.75;28.25;;;;;4.03;63.26;101105.03;146597;601;48911;-69
2022/01/15 03:02:31;;;;;;;;;38.25;30.00;;;;;4.09;62.81;101108.13;146602;580;46008;-69
2022/01/15 03:05:23;;;;;;;;;27.75;25.25;;;;;4.10;62.50;101103.09;146601;587;46016;-72
2022/01/15 03:08:15;;;;;;;;;30.75;26.50;;;;;4.13;62.61;101105.03;146606;620;45020;-73
2022/01/15 03:11:08;;;;;;;;;26.00;23.75;;;;;4.16;62.87;101108.72;146603;611;45911;-72
2022/01/15 03:14:01;;;;;;;;;29.25;23.00;;;;;4.19;62.12;101102.06;146602;570;46021;-71
2022/01/15 03:16:53;;;;;;;;;24.50;23.50;;;;;4.21;62.25;101108.25;146603;614;46010;-74
2022/01/15 03:19:46;;;;;;;;;27.75;21.75;;;;;4.24;62.00;101105.94;146603;576;46020;-73
2022/01/15 03:22:38;;;;;;;;;27.00;23.00;;;;;4.30;61.65;101108.97;146600;587;46010;-70
2022/01/15 03:25:30;;;;;;;;;29.00;25.25;;;;;4.34;61.55;101114.50;146605;643;45020;-71
2022/01/15 03:28:23;;;;;;;;;26.00;24.00;;;;;4.35;62.07;101110.25;146602;630;45911;-71
2022/01/15 03:31:15;;;;;;;;;21.75;17.25;;;;;4.39;60.58;101122.56;146603;570;46008;-71
2022/01/15 03:34:07;;;;;;;;;22.25;21.00;;;;;4.40;61.12;101117.56;146599;563;46016;-73
2022/01/15 03:36:59;;;;;;;;;28.25;25.50;;;;;4.43;60.64;101116.03;146603;599;46008;-72
2022/01/15 03:39:52;;;;;;;;;26.75;22.25;;;;;4.43;61.26;101116.94;146603;577;46016;-71
2022/01/15 03:42:44;;;;;;;;;24.00;21.25;;;;;4.44;61.55;101139.25;146603;662;46020;-72
2022/01/15 03:45:38;;;;;;;;;28.00;25.50;;;;;4.45;60.64;101132.44;146602;650;46016;-73
2022/01/15 03:48:30;;;;;;;;;25.00;24.75;;;;;4.46;60.36;101123.97;146600;611;46008;-76
2022/01/15 03:51:22;;;;;;;;;29.25;25.50;;;;;4.47;60.51;101129.22;146602;575;46911;-76
2022/01/15 03:54:14;;;;;;;;;22.00;20.00;;;;;4.48;61.12;101128.44;146600;634;46008;-77
2022/01/15 03:57:08;;;;;;;;;16.25;14.00;;;;;4.49;60.83;101129.38;146601;613;46016;-77
2022/01/15 04:00:00;;;;;;;;;22.25;17.25;;;;;4.55;60.60;101128.19;146608;572;46008;-76
2022/01/15 04:02:53;;;;;;;;;18.75;16.50;;;;;4.60;60.70;101146.53;146605;787;46016;-77
2022/01/15 04:05:45;;;;;;;;;30.50;27.00;;;;;3.55;60.23;100948.84;146604;597;46021;-77
2022/01/15 04:08:38;;;;;;;;;33.50;29.00;;;;;4.68;60.46;101144.59;146600;599;46016;-78
2022/01/15 04:11:30;;;;;;;;;28.50;26.00;;;;;4.70;60.72;101155.87;146604;644;46021;-74
2022/01/15 04:14:22;;;;;;;;;23.75;19.50;;;;;4.70;60.22;101149.06;146601;658;46016;-75
2022/01/15 04:17:14;;;;;;;;;17.75;14.75;;;;;4.72;60.29;101151.78;146606;637;46020;-74
2022/01/15 04:20:08;;;;;;;;;17.25;14.25;;;;;4.80;60.36;101148.16;146607;593;45029;-73
2022/01/15 04:23:01;;;;;;;;;17.00;12.75;;;;;4.87;59.93;101153.03;146611;571;46020;-73
2022/01/15 04:25:53;;;;;;;;;14.00;13.00;;;;;4.96;59.56;101158.91;146608;592;46017;-74
2022/01/15 04:28:45;;;;;;;;;17.25;14.75;;;;;5.06;59.02;101169.13;146605;587;46008;-74
2022/01/15 04:31:51;;;;;;;;;16.00;12.75;;;;;5.12;58.77;101153.31;146606;574;46911;-72
2022/01/15 04:34:43;;;;;;;;;16.50;15.25;;;;;5.19;58.99;101164.97;146609;564;46008;-73
2022/01/15 04:37:42;;;;;;;;;23.50;21.50;;;;;5.17;59.67;101157.16;146600;573;46016;-80
2022/01/15 04:40:34;;;;;;;;;23.50;23.00;;;;;5.16;58.99;101175.00;146605;614;46008;-73
2022/01/15 04:43:26;;;;;;;;;26.00;22.50;;;;;5.15;58.37;101166.41;146600;649;46016;-72
2022/01/15 04:46:19;;;;;;;;;27.00;24.00;;;;;5.14;59.14;101167.19;146603;608;45020;-74
2022/01/15 04:49:11;;;;;;;;;30.25;29.00;;;;;5.12;58.62;101163.59;146602;621;46016;-75
2022/01/15 04:52:04;;;;;;;;;39.25;31.00;;;;;5.02;58.68;101164.53;146605;563;45020;-74
2022/01/15 04:54:56;;;;;;;;;31.75;25.00;;;;;4.96;58.98;101163.16;146599;599;46010;-75
2022/01/15 04:57:48;;;;;;;;;46.00;36.25;;;;;4.87;59.70;101161.63;146603;619;46020;-74
2022/01/15 05:00:41;;;;;;;;;46.00;38.75;;;;;4.82;59.57;101177.44;146605;646;46012;-71
2022/01/15 05:03:33;;;;;;;;;50.50;38.50;;;;;4.73;58.91;101169.88;146604;625;46008;-72
2022/01/15 05:06:26;;;;;;;;;53.50;40.25;;;;;4.71;59.47;101170.53;146605;569;46016;-73
2022/01/15 05:09:19;;;;;;;;;56.50;40.75;;;;;4.68;59.15;101175.44;146612;607;46020;-72
2022/01/15 05:12:26;;;;;;;;;51.25;39.00;;;;;4.66;59.55;101180.44;146601;569;46016;-72
2022/01/15 05:15:19;;;;;;;;;21.25;20.75;;;;;4.63;58.61;101177.59;146600;619;46020;-72
2022/01/15 05:18:11;;;;;;;;;31.75;26.75;;;;;4.64;59.65;101156.28;146599;576;46017;-73
2022/01/15 05:21:03;;;;;;;;;30.50;26.50;;;;;4.73;59.25;101193.00;146602;641;46020;-73
2022/01/15 05:23:56;;;;;;;;;31.75;26.25;;;;;4.83;59.26;101184.38;146600;605;46016;-71
2022/01/15 05:26:48;;;;;;;;;28.00;22.00;;;;;4.96;57.76;101191.41;146604;640;45021;-72
2022/01/15 05:29:40;;;;;;;;;38.50;35.00;;;;;5.07;58.05;101198.31;146601;622;46016;-74
2022/01/15 05:32:33;;;;;;;;;28.50;26.25;;;;;5.15;58.06;101184.41;146604;613;46020;-72
2022/01/15 05:35:28;;;;;;;;;41.25;33.75;;;;;5.18;58.99;101206.91;146601;607;46016;-73
2022/01/15 05:38:20;;;;;;;;;33.50;29.25;;;;;5.15;57.86;101201.50;146601;600;46020;-74
2022/01/15 05:41:12;;;;;;;;;35.00;31.00;;;;;5.07;58.29;101206.00;146601;583;46011;-74
2022/01/15 05:44:06;;;;;;;;;33.00;30.50;;;;;5.04;59.28;101209.22;146602;594;45912;-72
2022/01/15 05:46:58;;;;;;;;;27.00;24.25;;;;;5.08;58.47;101198.44;146601;574;46016;-73
2022/01/15 05:49:51;;;;;;;;;27.75;25.00;;;;;5.21;58.68;101207.13;146605;569;46020;-73
2022/01/15 05:52:43;;;;;;;;;39.25;32.75;;;;;5.30;58.92;101174.44;146601;667;46016;-73
2022/01/15 05:55:35;;;;;;;;;27.00;22.50;;;;;5.45;58.45;101203.94;146602;628;46008;-80
2022/01/15 05:58:28;;;;;;;;;25.75;22.50;;;;;5.65;58.41;101205.50;146600;592;46016;-80
2022/01/15 06:01:20;;;;;;;;;22.75;18.50;;;;;5.82;57.67;101214.53;146609;676;45021;-78
2022/01/15 06:04:12;;;;;;;;;23.00;19.50;;;;;5.92;58.30;101236.72;146602;624;46017;-80
2022/01/15 06:07:05;;;;;;;;;24.25;19.50;;;;;6.03;58.28;101230.78;146609;563;46020;-74
2022/01/15 06:09:57;;;;;;;;;24.75;20.25;;;;;6.09;58.50;101246.72;146601;598;46016;-74
2022/01/15 06:12:49;;;;;;;;;32.00;24.75;;;;;6.11;59.23;101249.41;146605;598;45042;-73
2022/01/15 06:15:41;;;;;;;;;25.50;23.25;;;;;6.11;58.57;101245.16;146603;630;46016;-75
2022/01/15 06:18:33;;;;;;;;;28.00;24.00;;;;;6.18;59.28;101268.00;146605;607;45913;-79
2022/01/15 06:21:26;;;;;;;;;62.75;47.25;;;;;6.20;58.70;101278.44;146603;570;46010;-73
2022/01/15 06:24:18;;;;;;;;;23.75;20.75;;;;;5.22;58.87;101104.41;146603;621;46021;-73
2022/01/15 06:27:11;;;;;;;;;20.50;19.00;;;;;6.39;59.70;101307.41;146602;609;46016;-70
2022/01/15 06:30:04;;;;;;;;;18.00;15.75;;;;;6.77;58.87;101285.34;146601;593;46008;-75
2022/01/15 06:32:56;;;;;;;;;25.75;21.50;;;;;7.60;58.58;101282.91;146602;592;46016;-76
2022/01/15 06:35:49;;;;;;;;;44.00;36.25;;;;;8.66;56.70;101295.50;146601;570;46020;-76
2022/01/15 06:38:41;;;;;;;;;24.75;23.25;;;;;9.59;54.46;101299.88;146601;569;46911;-72
2022/01/15 06:41:32;;;;;;;;;19.00;13.75;;;;;10.43;52.97;101274.06;146605;602;45052;-73
2022/01/15 06:44:25;;;;;;;;;28.75;21.75;;;;;11.30;53.38;101299.06;146599;583;46016;-73
2022/01/15 06:47:17;;;;;;;;;30.25;25.75;;;;;12.29;50.47;101288.13;146603;595;46021;-75
2022/01/15 06:50:10;;;;;;;;;36.00;30.50;;;;;12.97;46.16;101321.16;146601;575;46911;-74
2022/01/15 06:53:02;;;;;;;;;33.00;30.00;;;;;13.18;48.11;101304.03;146599;629;46020;-73
2022/01/15 06:55:55;;;;;;;;;52.25;41.25;;;;;13.43;47.41;101278.28;146605;573;46012;-76
2022/01/15 06:58:47;;;;;;;;;33.00;26.25;;;;;13.50;47.62;101309.94;146602;611;46020;-72
2022/01/15 07:01:39;;;;;;;;;41.25;32.25;;;;;13.57;47.84;101306.81;146599;606;46017;-73
2022/01/15 07:04:31;;;;;;;;;19.25;18.50;;;;;13.67;47.98;101312.47;146602;602;46008;-73
2022/01/15 07:07:23;;;;;;;;;19.00;17.25;;;;;13.98;46.32;101317.41;146599;605;46016;-73
2022/01/15 07:10:17;;;;;;;;;20.75;16.50;;;;;14.10;48.01;101329.31;146603;583;46020;-74
2022/01/15 07:13:10;;;;;;;;;25.00;23.00;;;;;14.14;47.21;101345.09;146603;590;46010;-74
2022/01/15 07:16:02;;;;;;;;;30.00;27.00;;;;;14.26;48.67;101335.25;146602;564;46021;-74
2022/01/15 07:18:54;;;;;;;;;23.00;21.25;;;;;14.52;46.34;101339.97;146601;576;46016;-74
2022/01/15 07:21:47;;;;;;;;;21.00;17.25;;;;;14.67;46.19;101338.84;146604;571;45020;-74
2022/01/15 07:24:40;;;;;;;;;38.00;32.75;;;;;14.51;46.98;101368.59;146598;605;46010;-74
2022/01/15 07:27:32;;;;;;;;;26.50;24.25;;;;;14.54;47.91;101346.13;146602;605;46008;-74
2022/01/15 07:30:24;;;;;;;;;58.00;44.50;;;;;14.61;45.45;101349.94;146603;710;46013;-75
2022/01/15 07:33:17;;;;;;;;;39.00;32.00;;;;;14.41;47.97;101366.38;146604;597;46008;-74
2022/01/15 07:36:09;;;;;;;;;22.00;19.00;;;;;14.31;46.95;101367.66;146600;577;46911;-74
2022/01/15 07:39:01;;;;;;;;;16.50;13.25;;;;;14.01;46.79;101367.09;146610;593;46021;-75
2022/01/15 07:41:55;;;;;;;;;19.00;16.00;;;;;13.72;49.11;101365.72;146601;566;46010;-74
2022/01/15 07:44:47;;;;;;;;;41.50;32.75;;;;;13.60;50.20;101381.63;146607;580;46020;-73
2022/01/15 07:47:40;;;;;;;;;28.00;23.25;;;;;13.51;49.76;101382.06;146602;595;46017;-73
2022/01/15 07:50:33;;;;;;;;;48.00;38.75;;;;;13.35;50.29;101388.22;146603;589;46020;-73
2022/01/15 07:53:25;;;;;;;;;47.00;38.00;;;;;13.27;51.15;101388.66;146605;555;46010;-73
2022/01/15 07:56:17;;;;;;;;;31.25;24.25;;;;;13.30;51.27;101396.63;146602;573;46020;-74
2022/01/15 07:59:10;;;;;;;;;20.75;18.00;;;;;13.20;49.47;101391.72;146603;677;46016;-74
2022/01/15 08:02:02;;;;;;;;;21.00;17.00;;;;;13.03;50.76;101398.69;146606;609;45913;-73
2022/01/15 08:04:54;;;;;;;;;43.50;32.25;;;;;12.96;52.79;101405.28;146598;622;46012;-73
2022/01/15 08:07:47;;;;;;;;;41.00;33.00;;;;;13.06;52.12;101411.88;146605;632;46020;-74
2022/01/15 08:10:39;;;;;;;;;25.00;21.75;;;;;13.17;51.49;101411.56;146601;608;46016;-73
2022/01/15 08:13:31;;;;;;;;;32.00;28.75;;;;;13.27;51.06;101428.62;146603;605;46020;-76
2022/01/15 08:16:23;;;;;;;;;28.00;24.00;;;;;13.38;51.91;101430.06;146600;567;46016;-75
2022/01/15 08:19:16;;;;;;;;;13.00;10.75;;;;;13.49;51.76;101424.50;146612;580;45020;-73
2022/01/15 08:22:10;;;;;;;;;13.00;11.00;;;;;13.51;50.81;101434.19;146606;630;46013;-74
2022/01/15 08:25:02;;;;;;;;;11.00;10.25;;;;;13.58;52.04;101423.28;146609;565;46021;-73
2022/01/15 08:27:54;;;;;;;;;14.25;12.75;;;;;13.67;50.93;101427.13;146605;606;46016;-74
2022/01/15 08:30:47;;;;;;;;;20.50;18.75;;;;;13.78;52.28;101434.66;146607;583;46021;-74
2022/01/15 08:33:39;;;;;;;;;20.25;17.25;;;;;13.96;51.32;101425.97;146597;609;46010;-74
2022/01/15 08:36:32;;;;;;;;;8.00;7.00;;;;;13.91;48.84;101430.06;146613;591;46008;-73
2022/01/15 08:39:24;;;;;;;;;6.50;6.25;;;;;13.89;50.17;101442.12;146609;645;46012;-73
2022/01/15 08:42:16;;;;;;;;;13.00;11.75;;;;;13.91;50.96;101433.56;146609;579;46008;-74
2022/01/15 08:45:14;;;;;;;;;13.50;9.50;;;;;13.88;51.07;101446.44;146609;597;46010;-73
2022/01/15 08:48:07;;;;;;;;;8.50;8.25;;;;;13.89;50.75;101455.16;146613;630;46020;-75
2022/01/15 08:50:59;;;;;;;;;12.25;10.50;;;;;13.91;48.89;101459.63;146608;611;46016;-74
2022/01/15 08:53:52;;;;;;;;;13.75;11.00;;;;;13.93;50.31;101455.41;146612;623;45913;-77
2022/01/15 08:56:44;;;;;;;;;11.50;9.50;;;;;14.02;51.45;101453.25;146609;611;46012;-75
2022/01/15 08:59:36;;;;;;;;;11.50;8.50;;;;;14.14;50.28;101450.31;146612;575;46021;-74
2022/01/15 09:02:29;;;;;;;;;10.25;10.25;;;;;14.28;50.00;101448.38;146608;571;46016;-74
2022/01/15 09:05:22;;;;;;;;;11.00;9.75;;;;;14.40;49.34;101448.06;146610;569;46020;-73
2022/01/15 09:08:15;;;;;;;;;14.00;12.25;;;;;14.45;50.50;101442.22;146607;564;46017;-72
2022/01/15 09:11:08;;;;;;;;;9.00;7.75;;;;;14.51;49.31;101444.28;146614;614;46020;-75
2022/01/15 09:14:00;;;;;;;;;9.50;9.50;;;;;14.55;49.98;101454.06;146610;638;45911;-74
2022/01/15 09:16:52;;;;;;;;;7.75;7.75;;;;;14.64;48.88;101459.69;146618;586;46008;-75
2022/01/15 09:19:44;;;;;;;;;9.00;7.50;;;;;14.70;48.76;101459.06;146613;618;46010;-73
2022/01/15 09:22:37;;;;;;;;;17.00;16.25;;;;;14.78;49.97;101466.44;146604;574;46008;-73
2022/01/15 09:25:30;;;;;;;;;8.25;7.50;;;;;14.91;48.80;101475.72;146612;571;46015;-72
2022/01/15 09:31:32;;;;;;;;;12.25;10.00;;;;;15.03;49.31;101475.38;146609;569;46016;-73
2022/01/15 09:34:24;;;;;;;;;9.75;8.25;;;;;15.18;48.08;101459.50;146612;711;46020;-74
2022/01/15 09:37:16;;;;;;;;;23.25;21.50;;;;;15.32;48.62;101461.00;146600;572;45911;-73
2022/01/15 09:40:13;;;;;;;;;9.00;8.25;;;;;15.40;48.33;101466.56;146614;636;46021;-73
2022/01/15 09:43:06;;;;;;;;;6.25;5.00;;;;;15.46;47.60;101464.22;146612;626;46016;-73
2022/01/15 09:46:01;;;;;;;;;9.00;8.75;;;;;15.53;48.55;101447.06;146615;579;46008;-74
2022/01/15 09:48:54;;;;;;;;;21.25;19.50;;;;;15.68;47.54;101461.72;146601;577;46911;-74
2022/01/15 09:51:47;;;;;;;;;10.00;9.75;;;;;15.81;48.06;101447.44;146613;564;46020;-74
2022/01/15 09:54:41;;;;;;;;;7.00;6.00;;;;;15.95;46.89;101448.03;146611;714;46017;-75
2022/01/15 09:57:33;;;;;;;;;4.75;3.75;;;;;16.06;45.39;101440.59;146614;621;47020;-73
2022/01/15 10:00:27;;;;;;;;;7.00;6.00;;;;;16.11;46.62;101436.44;146611;574;46017;-72
2022/01/15 10:03:20;;;;;;;;;6.50;6.25;;;;;16.12;47.26;101425.16;146616;608;45021;-74
2022/01/15 10:06:12;;;;;;;;;9.25;7.75;;;;;16.09;47.82;101419.78;146611;593;46016;-73
2022/01/15 10:09:12;;;;;;;;;7.50;5.50;;;;;16.09;47.76;101436.38;146615;680;46020;-75
2022/01/15 10:12:04;;;;;;;;;9.25;8.00;;;;;16.15;48.09;101426.16;146612;573;46016;-74
2022/01/15 10:14:57;;;;;;;;;12.00;10.00;;;;;16.31;47.67;101435.50;146610;609;46020;-73
2022/01/15 10:17:49;;;;;;;;;8.00;6.50;;;;;16.50;46.07;101434.47;146610;657;46016;-74
2022/01/15 10:20:41;;;;;;;;;16.75;12.25;;;;;16.66;47.03;101435.06;146608;654;46008;-75
2022/01/15 10:23:33;;;;;;;;;10.75;10.75;;;;;16.73;45.82;101432.75;146609;632;46010;-74
2022/01/15 10:26:31;;;;;;;;;13.50;10.75;;;;;16.85;46.94;101421.84;146610;580;46020;-74
2022/01/15 10:29:23;;;;;;;;;7.75;6.00;;;;;16.90;45.96;101420.31;146610;639;46012;-74
2022/01/15 10:32:19;;;;;;;;;6.00;4.00;;;;;16.84;45.05;101431.44;146611;707;46020;-75
2022/01/15 10:35:19;;;;;;;;;5.75;5.75;;;;;16.81;46.62;101436.56;146612;571;46016;-75
2022/01/15 10:38:17;;;;;;;;;5.50;5.00;;;;;16.82;45.53;101419.13;146615;632;46913;-73
2022/01/15 10:41:09;;;;;;;;;7.00;6.00;;;;;16.85;45.54;101420.16;146612;585;45911;-74
2022/01/15 10:44:02;;;;;;;;;9.00;8.50;;;;;16.09;44.16;101273.28;146611;601;46021;-74
2022/01/15 10:46:54;;;;;;;;;6.75;6.50;;;;;16.96;45.68;101410.06;146611;580;46010;-74
2022/01/15 10:49:47;;;;;;;;;7.75;5.25;;;;;17.03;46.66;101411.16;146617;576;45020;-74
2022/01/15 10:52:39;;;;;;;;;5.00;5.00;;;;;17.16;43.61;101410.75;146612;675;46016;-73
2022/01/15 10:55:34;;;;;;;;;8.00;5.75;;;;;17.29;44.25;101414.72;146614;597;46020;-73
2022/01/15 10:58:25;;;;;;;;;7.25;7.25;;;;;17.43;45.15;101423.94;146611;573;46017;-72
2022/01/15 11:01:30;;;;;;;;;13.25;12.50;;;;;17.57;44.54;101405.16;146610;613;46020;-73
2022/01/15 11:04:41;;;;;;;;;14.75;13.50;;;;;17.63;42.44;101389.63;146604;570;46016;-74
2022/01/15 11:07:39;;;;;;;;;14.75;14.25;;;;;17.59;44.60;101419.22;146608;570;46021;-74
2022/01/15 11:10:32;;;;;;;;;15.50;14.25;;;;;17.58;41.27;101409.56;146606;593;46012;-74
2022/01/15 11:13:50;;;;;;;;;14.25;12.25;;;;;16.62;43.05;101258.66;146605;565;46020;-76
2022/01/15 11:16:42;;;;;;;;;7.25;5.75;;;;;17.47;41.26;101436.31;146610;600;46016;-77
2022/01/15 11:19:36;;;;;;;;;15.00;12.50;;;;;17.38;41.20;101430.75;146611;581;46008;-76
2022/01/15 11:22:28;;;;;;;;;14.25;13.00;;;;;17.27;42.45;101435.62;146607;609;46911;-78
2022/01/15 11:25:20;;;;;;;;;11.50;10.50;;;;;17.21;41.04;101429.28;146613;622;46020;-73
2022/01/15 11:28:14;;;;;;;;;14.00;10.25;;;;;17.17;41.97;101416.91;146608;583;47016;-73
2022/01/15 11:31:24;;;;;;;;;8.25;7.75;;;;;17.10;42.62;101428.88;146612;717;46020;-70
2022/01/15 11:34:17;;;;;;;;;13.75;12.25;;;;;17.02;44.37;101417.25;146602;586;46010;-73
2022/01/15 11:37:22;;;;;;;;;10.50;9.75;;;;;16.99;44.50;101417.13;146614;565;46021;-72
2022/01/15 11:40:53;;;;;;;;;9.00;7.75;;;;;16.08;45.41;101232.28;146610;594;46911;-72
2022/01/15 11:43:45;;;;;;;;;11.25;7.50;;;;;17.13;42.00;101399.28;146612;688;46008;-72
2022/01/15 11:47:03;;;;;;;;;10.00;9.00;;;;;17.22;43.95;101403.09;146607;570;46016;-72
2022/01/15 11:49:59;;;;;;;;;12.50;11.25;;;;;17.37;43.22;101401.88;146611;585;45022;-72
2022/01/15 11:52:52;;;;;;;;;13.00;11.00;;;;;17.49;42.34;101400.56;146608;585;46016;-72
2022/01/15 11:55:44;;;;;;;;;25.75;22.50;;;;;17.59;42.24;101403.47;146604;569;46008;-74
2022/01/15 11:58:36;;;;;;;;;18.25;16.00;;;;;17.64;41.28;101394.06;146602;743;46011;-73
2022/01/15 12:01:43;;;;;;;;;24.25;22.00;;;;;17.62;43.92;101399.22;146598;619;46008;-73
2022/01/15 12:04:43;;;;;;;;;4.75;3.75;;;;;17.65;42.56;101401.94;146608;641;46911;-74
2022/01/15 12:07:35;;;;;;;;;12.25;12.00;;;;;17.70;41.42;101402.13;146611;600;46008;-73
2022/01/15 12:10:43;;;;;;;;;12.75;12.75;;;;;17.69;41.37;101403.81;146607;680;46016;-72
2022/01/15 12:13:48;;;;;;;;;14.00;12.25;;;;;17.61;42.81;101407.94;146610;599;45913;-73
2022/01/15 12:16:41;;;;;;;;;10.25;10.00;;;;;17.61;42.25;101420.16;146607;576;46010;-73
2022/01/15 12:19:41;;;;;;;;;11.25;10.00;;;;;17.67;43.21;101421.25;146611;634;46021;-74
2022/01/15 12:23:43;;;;;;;;;14.50;12.00;;;;;16.08;43.90;101125.91;146604;570;46016;-73
2022/01/15 12:26:35;;;;;;;;;19.25;16.50;;;;;17.86;41.85;101411.41;146608;582;46020;-73
2022/01/15 12:29:27;;;;;;;;;16.75;14.50;;;;;17.95;41.20;101427.47;146601;576;46010;-73
2022/01/15 12:32:31;;;;;;;;;10.25;9.00;;;;;18.08;42.52;101415.63;146613;613;46020;-72
2022/01/15 12:35:27;;;;;;;;;19.50;17.50;;;;;18.23;42.40;101426.59;146604;593;46016;-73
2022/01/15 12:38:25;;;;;;;;;11.75;8.25;;;;;18.46;42.41;101420.28;146613;597;46020;-73
2022/01/15 12:41:20;;;;;;;;;12.50;9.75;;;;;18.79;42.13;101426.56;146608;576;46017;-72
2022/01/15 12:44:13;;;;;;;;;20.25;17.50;;;;;18.98;41.50;101427.97;146604;565;46021;-74
2022/01/15 12:47:05;;;;;;;;;14.25;13.00;;;;;19.19;41.46;101420.69;146605;667;46012;-72
2022/01/15 12:49:59;;;;;;;;;15.25;12.75;;;;;19.46;40.38;101425.75;146608;619;46008;-73
2022/01/15 12:53:05;;;;;;;;;12.75;10.75;;;;;19.82;41.92;101430.22;146605;594;46010;-73
2022/01/15 12:55:59;;;;;;;;;17.75;16.00;;;;;19.84;38.06;101408.38;146603;607;46020;-73
2022/01/15 12:58:55;;;;;;;;;17.50;13.75;;;;;19.79;38.29;101433.66;146607;551;45911;-73
2022/01/15 13:01:52;;;;;;;;;13.75;13.75;;;;;19.74;39.60;101434.41;146611;569;46020;-72
2022/01/15 13:04:44;;;;;;;;;14.25;12.25;;;;;19.72;39.61;101430.81;146602;689;46017;-72
2022/01/15 13:08:18;;;;;;;;;7.00;7.00;;;;;19.04;37.96;101289.72;146614;605;46012;-72
2022/01/15 13:14:16;;;;;;;;;7.75;7.25;;;;;19.70;35.88;101453.59;146613;600;46022;-73
2022/01/15 13:17:08;;;;;;;;;9.75;8.75;;;;;19.67;38.25;101453.53;146609;575;46016;-71
2022/01/15 13:20:01;;;;;;;;;10.25;7.75;;;;;19.66;32.50;101470.13;146615;646;45021;-72
2022/01/15 13:22:56;;;;;;;;;8.00;7.75;;;;;19.52;34.99;101461.84;146613;646;46016;-72
2022/01/15 13:25:52;;;;;;;;;11.75;10.00;;;;;19.44;38.63;101466.00;146610;617;46020;-71
2022/01/15 13:28:46;;;;;;;;;13.00;12.00;;;;;19.46;36.92;101477.47;146605;650;46017;-72
2022/01/15 13:31:41;;;;;;;;;8.50;7.50;;;;;19.58;36.35;101473.44;146610;682;46020;-72
2022/01/15 13:34:36;;;;;;;;;10.50;9.50;;;;;19.67;37.36;101485.09;146610;698;46011;-72
2022/01/15 13:37:28;;;;;;;;;6.33;6.33;;;;;19.72;35.41;101470.28;146616;574;46020;-72
2022/01/15 13:40:42;;;;;;;;;9.00;8.00;;;;;18.12;38.67;101199.66;146612;669;46010;-74
2022/01/15 13:43:36;;;;;;;;;10.50;10.50;;;;;19.74;38.13;101485.28;146604;639;46911;-73
2022/01/15 13:46:42;;;;;;;;;12.67;11.00;;;;;19.75;39.85;101492.34;146608;580;46016;-72